sensor_id;sensor_type;location;lat;lon;timestamp;temperature;humidity
77039;DHT22;65970;50.476;4.840;2023-04-24T00:02:27;10.30;66.60
77039;DHT22;65970;50.476;4.840;2023-04-24T00:07:28;10.30;68.00
77039;DHT22;65970;50.476;4.840;2023-04-24T00:12:28;10.30;68.80
77039;DHT22;65970;50.476;4.840;2023-04-24T00:17:29;10.30;67.80
77039;DHT22;65970;50.476;4.840;2023-04-24T00:22:30;10.20;67.30
77039;DHT22;65970;50.476;4.840;2023-04-24T00:27:30;10.30;68.00
77039;DHT22;65970;50.476;4.840;2023-04-24T00:32:31;10.20;68.90
77039;DHT22;65970;50.476;4.840;2023-04-24T00:37:31;10.30;70.60
77039;DHT22;65970;50.476;4.840;2023-04-24T00:42:32;10.30;68.70
77039;DHT22;65970;50.476;4.840;2023-04-24T00:47:33;10.20;69.00
77039;DHT22;65970;50.476;4.840;2023-04-24T00:52:33;10.30;69.80
77039;DHT22;65970;50.476;4.840;2023-04-24T00:57:34;10.20;69.70
77039;DHT22;65970;50.476;4.840;2023-04-24T01:02:34;10.20;69.90
77039;DHT22;65970;50.476;4.840;2023-04-24T01:07:35;10.20;69.40
77039;DHT22;65970;50.476;4.840;2023-04-24T01:12:36;10.20;69.70
77039;DHT22;65970;50.476;4.840;2023-04-24T01:17:37;10.10;69.20
77039;DHT22;65970;50.476;4.840;2023-04-24T01:22:37;10.10;68.80
77039;DHT22;65970;50.476;4.840;2023-04-24T01:27:38;10.10;70.00
77039;DHT22;65970;50.476;4.840;2023-04-24T01:32:38;10.10;69.90
77039;DHT22;65970;50.476;4.840;2023-04-24T01:37:39;10.10;71.70
77039;DHT22;65970;50.476;4.840;2023-04-24T01:42:40;10.10;71.40
77039;DHT22;65970;50.476;4.840;2023-04-24T01:47:41;10.10;76.40
77039;DHT22;65970;50.476;4.840;2023-04-24T01:52:41;10.00;83.60
77039;DHT22;65970;50.476;4.840;2023-04-24T01:57:42;10.00;88.70
77039;DHT22;65970;50.476;4.840;2023-04-24T02:02:42;9.90;93.50
77039;DHT22;65970;50.476;4.840;2023-04-24T02:07:43;9.80;95.50
77039;DHT22;65970;50.476;4.840;2023-04-24T02:12:43;9.60;96.70
77039;DHT22;65970;50.476;4.840;2023-04-24T02:17:44;9.60;97.20
77039;DHT22;65970;50.476;4.840;2023-04-24T02:22:44;9.60;99.60
77039;DHT22;65970;50.476;4.840;2023-04-24T02:27:44;9.60;96.90
77039;DHT22;65970;50.476;4.840;2023-04-24T02:32:45;9.60;97.10
77039;DHT22;65970;50.476;4.840;2023-04-24T02:37:45;9.50;94.00
77039;DHT22;65970;50.476;4.840;2023-04-24T02:42:46;9.50;96.20
77039;DHT22;65970;50.476;4.840;2023-04-24T02:47:46;9.60;97.70
77039;DHT22;65970;50.476;4.840;2023-04-24T02:52:46;9.50;96.20
77039;DHT22;65970;50.476;4.840;2023-04-24T02:57:47;9.40;95.40
77039;DHT22;65970;50.476;4.840;2023-04-24T03:02:47;9.40;95.90
77039;DHT22;65970;50.476;4.840;2023-04-24T03:07:48;9.30;94.00
77039;DHT22;65970;50.476;4.840;2023-04-24T03:12:48;9.30;94.30
77039;DHT22;65970;50.476;4.840;2023-04-24T03:17:49;9.30;94.80
77039;DHT22;65970;50.476;4.840;2023-04-24T03:22:49;9.30;98.30
77039;DHT22;65970;50.476;4.840;2023-04-24T03:27:50;9.30;99.90
77039;DHT22;65970;50.476;4.840;2023-04-24T03:32:50;9.30;99.90
77039;DHT22;65970;50.476;4.840;2023-04-24T03:37:50;9.30;99.90
77039;DHT22;65970;50.476;4.840;2023-04-24T03:42:51;9.30;99.90
77039;DHT22;65970;50.476;4.840;2023-04-24T03:47:51;9.20;99.90
77039;DHT22;65970;50.476;4.840;2023-04-24T03:52:52;9.20;99.90
77039;DHT22;65970;50.476;4.840;2023-04-24T03:57:52;9.10;99.90
77039;DHT22;65970;50.476;4.840;2023-04-24T04:02:53;9.10;99.90
77039;DHT22;65970;50.476;4.840;2023-04-24T04:07:53;9.10;99.90
77039;DHT22;65970;50.476;4.840;2023-04-24T04:12:53;9.10;99.90
77039;DHT22;65970;50.476;4.840;2023-04-24T04:17:54;9.10;99.90
77039;DHT22;65970;50.476;4.840;2023-04-24T04:22:54;9.10;99.90
77039;DHT22;65970;50.476;4.840;2023-04-24T04:27:55;9.10;99.90
77039;DHT22;65970;50.476;4.840;2023-04-24T04:32:55;9.10;99.90
77039;DHT22;65970;50.476;4.840;2023-04-24T04:37:55;9.10;99.90
77039;DHT22;65970;50.476;4.840;2023-04-24T04:42:56;9.10;99.90
77039;DHT22;65970;50.476;4.840;2023-04-24T04:47:56;9.10;99.90
77039;DHT22;65970;50.476;4.840;2023-04-24T04:52:57;9.00;99.90
77039;DHT22;65970;50.476;4.840;2023-04-24T04:57:57;9.00;99.90
77039;DHT22;65970;50.476;4.840;2023-04-24T05:02:57;9.10;99.90
77039;DHT22;65970;50.476;4.840;2023-04-24T05:07:58;9.10;99.90
77039;DHT22;65970;50.476;4.840;2023-04-24T05:12:58;9.10;99.90
77039;DHT22;65970;50.476;4.840;2023-04-24T05:17:59;9.10;99.90
77039;DHT22;65970;50.476;4.840;2023-04-24T05:22:59;9.10;99.90
77039;DHT22;65970;50.476;4.840;2023-04-24T05:28:00;9.20;99.90
77039;DHT22;65970;50.476;4.840;2023-04-24T05:38:11;9.20;99.90
77039;DHT22;65970;50.476;4.840;2023-04-24T05:43:11;9.20;99.90
77039;DHT22;65970;50.476;4.840;2023-04-24T05:48:12;9.20;99.90
77039;DHT22;65970;50.476;4.840;2023-04-24T05:53:12;9.20;99.90
77039;DHT22;65970;50.476;4.840;2023-04-24T05:58:13;9.20;99.90
77039;DHT22;65970;50.476;4.840;2023-04-24T06:03:14;9.30;99.90
77039;DHT22;65970;50.476;4.840;2023-04-24T06:08:14;9.30;99.90
77039;DHT22;65970;50.476;4.840;2023-04-24T06:13:15;9.30;99.90
77039;DHT22;65970;50.476;4.840;2023-04-24T06:18:15;9.30;99.90
77039;DHT22;65970;50.476;4.840;2023-04-24T06:23:16;9.30;99.90
77039;DHT22;65970;50.476;4.840;2023-04-24T06:28:16;9.30;99.90
77039;DHT22;65970;50.476;4.840;2023-04-24T06:33:17;9.30;99.90
77039;DHT22;65970;50.476;4.840;2023-04-24T06:38:17;9.40;99.90
77039;DHT22;65970;50.476;4.840;2023-04-24T06:43:18;9.40;99.90
77039;DHT22;65970;50.476;4.840;2023-04-24T06:48:18;9.40;99.90
77039;DHT22;65970;50.476;4.840;2023-04-24T06:53:19;9.40;99.90
77039;DHT22;65970;50.476;4.840;2023-04-24T06:58:19;9.40;99.90
77039;DHT22;65970;50.476;4.840;2023-04-24T07:03:19;9.40;99.90
77039;DHT22;65970;50.476;4.840;2023-04-24T07:08:20;9.50;99.90
77039;DHT22;65970;50.476;4.840;2023-04-24T07:13:20;9.50;99.90
77039;DHT22;65970;50.476;4.840;2023-04-24T07:18:21;9.60;99.90
77039;DHT22;65970;50.476;4.840;2023-04-24T07:23:22;9.50;99.90
77039;DHT22;65970;50.476;4.840;2023-04-24T07:28:22;9.50;99.90
77039;DHT22;65970;50.476;4.840;2023-04-24T07:33:23;9.50;99.90
77039;DHT22;65970;50.476;4.840;2023-04-24T07:38:23;9.60;99.90
77039;DHT22;65970;50.476;4.840;2023-04-24T07:43:23;9.60;99.90
77039;DHT22;65970;50.476;4.840;2023-04-24T07:48:24;9.60;99.90
77039;DHT22;65970;50.476;4.840;2023-04-24T07:53:24;9.60;99.90
77039;DHT22;65970;50.476;4.840;2023-04-24T07:58:25;9.70;99.90
77039;DHT22;65970;50.476;4.840;2023-04-24T08:03:25;9.60;99.90
77039;DHT22;65970;50.476;4.840;2023-04-24T08:08:26;9.70;99.90
77039;DHT22;65970;50.476;4.840;2023-04-24T08:13:26;9.80;99.90
77039;DHT22;65970;50.476;4.840;2023-04-24T08:18:27;9.90;99.90
77039;DHT22;65970;50.476;4.840;2023-04-24T08:23:27;9.90;99.90
77039;DHT22;65970;50.476;4.840;2023-04-24T08:28:38;9.80;99.90
77039;DHT22;65970;50.476;4.840;2023-04-24T08:33:39;9.90;99.90
77039;DHT22;65970;50.476;4.840;2023-04-24T08:38:39;9.80;99.90
77039;DHT22;65970;50.476;4.840;2023-04-24T08:43:40;9.90;99.90
77039;DHT22;65970;50.476;4.840;2023-04-24T08:48:49;9.90;99.90
77039;DHT22;65970;50.476;4.840;2023-04-24T08:53:51;10.00;99.90
77039;DHT22;65970;50.476;4.840;2023-04-24T08:58:53;10.10;99.90
77039;DHT22;65970;50.476;4.840;2023-04-24T09:03:57;10.20;99.90
77039;DHT22;65970;50.476;4.840;2023-04-24T09:08:59;10.30;99.90
77039;DHT22;65970;50.476;4.840;2023-04-24T09:14:00;10.40;99.90
77039;DHT22;65970;50.476;4.840;2023-04-24T09:19:01;10.60;99.90
77039;DHT22;65970;50.476;4.840;2023-04-24T09:24:03;10.70;99.90
77039;DHT22;65970;50.476;4.840;2023-04-24T09:34:14;11.00;99.90
77039;DHT22;65970;50.476;4.840;2023-04-24T09:44:29;11.30;87.10
77039;DHT22;65970;50.476;4.840;2023-04-24T09:49:32;11.30;83.90
77039;DHT22;65970;50.476;4.840;2023-04-24T09:54:32;11.50;82.60
77039;DHT22;65970;50.476;4.840;2023-04-24T09:59:33;11.70;73.90
77039;DHT22;65970;50.476;4.840;2023-04-24T10:04:33;11.70;68.60
77039;DHT22;65970;50.476;4.840;2023-04-24T10:09:34;11.70;70.60
77039;DHT22;65970;50.476;4.840;2023-04-24T10:14:34;11.90;76.30
77039;DHT22;65970;50.476;4.840;2023-04-24T10:19:35;11.90;67.60
77039;DHT22;65970;50.476;4.840;2023-04-24T10:24:36;11.80;68.50
77039;DHT22;65970;50.476;4.840;2023-04-24T10:29:36;11.70;68.70
77039;DHT22;65970;50.476;4.840;2023-04-24T10:34:38;11.50;73.50
77039;DHT22;65970;50.476;4.840;2023-04-24T10:39:39;11.40;72.70
77039;DHT22;65970;50.476;4.840;2023-04-24T10:44:39;11.50;76.40
77039;DHT22;65970;50.476;4.840;2023-04-24T10:49:40;11.60;73.70
77039;DHT22;65970;50.476;4.840;2023-04-24T10:54:41;11.70;70.60
77039;DHT22;65970;50.476;4.840;2023-04-24T10:59:42;11.70;72.30
77039;DHT22;65970;50.476;4.840;2023-04-24T11:04:43;11.70;69.40
77039;DHT22;65970;50.476;4.840;2023-04-24T11:09:43;11.90;70.60
77039;DHT22;65970;50.476;4.840;2023-04-24T11:20:06;12.10;64.70
77039;DHT22;65970;50.476;4.840;2023-04-24T11:25:07;12.00;66.60
77039;DHT22;65970;50.476;4.840;2023-04-24T11:30:08;11.90;68.40
77039;DHT22;65970;50.476;4.840;2023-04-24T11:35:18;11.90;74.00
77039;DHT22;65970;50.476;4.840;2023-04-24T11:40:19;12.30;99.40
77039;DHT22;65970;50.476;4.840;2023-04-24T11:45:24;12.70;81.80
77039;DHT22;65970;50.476;4.840;2023-04-24T11:50:25;12.90;65.00
77039;DHT22;65970;50.476;4.840;2023-04-24T11:55:27;12.80;64.00
77039;DHT22;65970;50.476;4.840;2023-04-24T12:00:28;12.80;62.20
77039;DHT22;65970;50.476;4.840;2023-04-24T12:05:29;13.00;67.30
77039;DHT22;65970;50.476;4.840;2023-04-24T12:10:30;13.00;66.30
77039;DHT22;65970;50.476;4.840;2023-04-24T12:15:30;12.90;69.10
77039;DHT22;65970;50.476;4.840;2023-04-24T12:20:32;12.80;67.20
77039;DHT22;65970;50.476;4.840;2023-04-24T12:25:32;12.80;63.20
77039;DHT22;65970;50.476;4.840;2023-04-24T12:30:34;12.80;58.70
77039;DHT22;65970;50.476;4.840;2023-04-24T12:35:35;12.90;66.70
77039;DHT22;65970;50.476;4.840;2023-04-24T12:40:35;13.10;61.90
77039;DHT22;65970;50.476;4.840;2023-04-24T12:45:36;13.30;58.10
77039;DHT22;65970;50.476;4.840;2023-04-24T12:50:37;13.70;63.50
77039;DHT22;65970;50.476;4.840;2023-04-24T12:55:38;13.90;53.90
77039;DHT22;65970;50.476;4.840;2023-04-24T13:00:38;13.90;54.40
77039;DHT22;65970;50.476;4.840;2023-04-24T13:05:39;13.80;50.90
77039;DHT22;65970;50.476;4.840;2023-04-24T13:10:39;13.70;52.00
77039;DHT22;65970;50.476;4.840;2023-04-24T13:15:39;13.60;50.90
77039;DHT22;65970;50.476;4.840;2023-04-24T13:20:40;13.40;50.80
77039;DHT22;65970;50.476;4.840;2023-04-24T13:25:40;13.30;54.10
77039;DHT22;65970;50.476;4.840;2023-04-24T13:30:41;13.20;55.70
77039;DHT22;65970;50.476;4.840;2023-04-24T13:35:41;13.00;56.20
77039;DHT22;65970;50.476;4.840;2023-04-24T13:40:42;12.90;61.60
77039;DHT22;65970;50.476;4.840;2023-04-24T13:45:42;12.70;65.70
77039;DHT22;65970;50.476;4.840;2023-04-24T13:50:43;12.40;67.80
77039;DHT22;65970;50.476;4.840;2023-04-24T13:55:43;12.20;73.10
77039;DHT22;65970;50.476;4.840;2023-04-24T14:00:44;12.10;77.60
77039;DHT22;65970;50.476;4.840;2023-04-24T14:05:44;12.00;79.80
77039;DHT22;65970;50.476;4.840;2023-04-24T14:10:44;11.90;81.00
77039;DHT22;65970;50.476;4.840;2023-04-24T14:15:45;11.80;81.60
77039;DHT22;65970;50.476;4.840;2023-04-24T14:20:45;11.80;83.60
77039;DHT22;65970;50.476;4.840;2023-04-24T14:25:48;11.70;84.30
77039;DHT22;65970;50.476;4.840;2023-04-24T14:30:51;11.70;86.40
77039;DHT22;65970;50.476;4.840;2023-04-24T14:35:55;11.60;88.30
77039;DHT22;65970;50.476;4.840;2023-04-24T14:40:58;11.60;90.40
77039;DHT22;65970;50.476;4.840;2023-04-24T14:45:59;11.60;91.20
77039;DHT22;65970;50.476;4.840;2023-04-24T14:56:10;11.80;99.90
77039;DHT22;65970;50.476;4.840;2023-04-24T15:01:10;12.00;99.90
77039;DHT22;65970;50.476;4.840;2023-04-24T15:06:11;12.10;98.90
77039;DHT22;65970;50.476;4.840;2023-04-24T15:11:11;12.20;89.30
77039;DHT22;65970;50.476;4.840;2023-04-24T15:16:12;12.30;85.30
77039;DHT22;65970;50.476;4.840;2023-04-24T15:21:12;12.40;82.40
77039;DHT22;65970;50.476;4.840;2023-04-24T15:26:12;12.40;81.30
77039;DHT22;65970;50.476;4.840;2023-04-24T15:31:13;12.40;78.00
77039;DHT22;65970;50.476;4.840;2023-04-24T15:36:13;12.40;77.60
77039;DHT22;65970;50.476;4.840;2023-04-24T15:41:14;12.40;76.50
77039;DHT22;65970;50.476;4.840;2023-04-24T15:46:15;12.40;75.50
77039;DHT22;65970;50.476;4.840;2023-04-24T15:51:15;12.40;72.40
77039;DHT22;65970;50.476;4.840;2023-04-24T15:56:16;12.30;72.30
77039;DHT22;65970;50.476;4.840;2023-04-24T16:01:16;12.30;69.60
77039;DHT22;65970;50.476;4.840;2023-04-24T16:06:17;12.30;68.40
77039;DHT22;65970;50.476;4.840;2023-04-24T16:11:17;12.30;67.60
77039;DHT22;65970;50.476;4.840;2023-04-24T16:16:18;12.30;68.20
77039;DHT22;65970;50.476;4.840;2023-04-24T16:21:19;12.30;69.30
77039;DHT22;65970;50.476;4.840;2023-04-24T16:26:19;12.30;71.00
77039;DHT22;65970;50.476;4.840;2023-04-24T16:31:20;12.20;70.30
77039;DHT22;65970;50.476;4.840;2023-04-24T16:36:20;12.20;66.30
77039;DHT22;65970;50.476;4.840;2023-04-24T16:41:21;12.20;66.50
77039;DHT22;65970;50.476;4.840;2023-04-24T16:46:21;12.20;67.30
77039;DHT22;65970;50.476;4.840;2023-04-24T16:51:22;12.20;66.10
77039;DHT22;65970;50.476;4.840;2023-04-24T16:56:22;12.10;64.50
77039;DHT22;65970;50.476;4.840;2023-04-24T17:01:23;12.20;66.70
77039;DHT22;65970;50.476;4.840;2023-04-24T17:06:23;12.20;64.50
77039;DHT22;65970;50.476;4.840;2023-04-24T17:11:24;12.20;65.90
77039;DHT22;65970;50.476;4.840;2023-04-24T17:16:24;12.10;65.20
77039;DHT22;65970;50.476;4.840;2023-04-24T17:21:25;12.10;64.80
77039;DHT22;65970;50.476;4.840;2023-04-24T17:26:25;12.10;65.90
77039;DHT22;65970;50.476;4.840;2023-04-24T17:31:25;12.10;64.50
77039;DHT22;65970;50.476;4.840;2023-04-24T17:36:26;12.10;65.20
77039;DHT22;65970;50.476;4.840;2023-04-24T17:41:26;12.00;66.00
77039;DHT22;65970;50.476;4.840;2023-04-24T17:46:27;12.00;62.40
77039;DHT22;65970;50.476;4.840;2023-04-24T17:51:27;12.00;61.40
77039;DHT22;65970;50.476;4.840;2023-04-24T17:56:28;11.90;58.70
77039;DHT22;65970;50.476;4.840;2023-04-24T18:01:28;11.90;56.30
77039;DHT22;65970;50.476;4.840;2023-04-24T18:06:29;11.80;56.80
77039;DHT22;65970;50.476;4.840;2023-04-24T18:11:29;11.80;57.50
77039;DHT22;65970;50.476;4.840;2023-04-24T18:16:29;11.70;59.30
77039;DHT22;65970;50.476;4.840;2023-04-24T18:21:30;11.70;62.10
77039;DHT22;65970;50.476;4.840;2023-04-24T18:26:30;11.60;62.20
77039;DHT22;65970;50.476;4.840;2023-04-24T18:31:31;11.50;63.00
77039;DHT22;65970;50.476;4.840;2023-04-24T18:36:31;11.50;64.90
77039;DHT22;65970;50.476;4.840;2023-04-24T18:41:32;11.40;61.10
77039;DHT22;65970;50.476;4.840;2023-04-24T18:46:32;11.40;62.80
77039;DHT22;65970;50.476;4.840;2023-04-24T18:51:32;11.40;64.90
77039;DHT22;65970;50.476;4.840;2023-04-24T18:56:33;11.40;64.00
77039;DHT22;65970;50.476;4.840;2023-04-24T19:01:33;11.40;62.50
77039;DHT22;65970;50.476;4.840;2023-04-24T19:06:34;11.30;61.20
77039;DHT22;65970;50.476;4.840;2023-04-24T19:11:34;11.30;62.40
77039;DHT22;65970;50.476;4.840;2023-04-24T19:16:35;11.20;65.20
77039;DHT22;65970;50.476;4.840;2023-04-24T19:21:35;11.10;67.60
77039;DHT22;65970;50.476;4.840;2023-04-24T19:26:36;11.10;70.30
77039;DHT22;65970;50.476;4.840;2023-04-24T19:31:36;11.10;75.00
77039;DHT22;65970;50.476;4.840;2023-04-24T19:36:37;10.90;78.20
77039;DHT22;65970;50.476;4.840;2023-04-24T19:41:37;10.90;82.90
77039;DHT22;65970;50.476;4.840;2023-04-24T19:46:37;10.90;84.40
77039;DHT22;65970;50.476;4.840;2023-04-24T19:51:38;10.90;85.80
77039;DHT22;65970;50.476;4.840;2023-04-24T19:56:38;10.90;87.00
77039;DHT22;65970;50.476;4.840;2023-04-24T20:01:39;10.90;89.10
77039;DHT22;65970;50.476;4.840;2023-04-24T20:06:39;10.90;91.30
77039;DHT22;65970;50.476;4.840;2023-04-24T20:11:40;10.90;91.60
77039;DHT22;65970;50.476;4.840;2023-04-24T20:16:40;10.80;91.30
77039;DHT22;65970;50.476;4.840;2023-04-24T20:21:40;10.80;92.80
77039;DHT22;65970;50.476;4.840;2023-04-24T20:26:41;10.80;93.60
77039;DHT22;65970;50.476;4.840;2023-04-24T20:31:41;10.80;92.40
77039;DHT22;65970;50.476;4.840;2023-04-24T20:36:42;10.80;92.40
77039;DHT22;65970;50.476;4.840;2023-04-24T20:41:42;10.70;91.60
77039;DHT22;65970;50.476;4.840;2023-04-24T20:46:43;10.70;95.10
77039;DHT22;65970;50.476;4.840;2023-04-24T20:51:43;10.70;93.50
77039;DHT22;65970;50.476;4.840;2023-04-24T20:56:43;10.70;92.50
77039;DHT22;65970;50.476;4.840;2023-04-24T21:01:44;10.70;93.50
77039;DHT22;65970;50.476;4.840;2023-04-24T21:06:44;10.70;90.80
77039;DHT22;65970;50.476;4.840;2023-04-24T21:11:45;10.60;90.40
77039;DHT22;65970;50.476;4.840;2023-04-24T21:16:45;10.60;92.10
77039;DHT22;65970;50.476;4.840;2023-04-24T21:21:46;10.60;91.40
77039;DHT22;65970;50.476;4.840;2023-04-24T21:26:46;10.60;93.60
77039;DHT22;65970;50.476;4.840;2023-04-24T21:31:47;10.60;93.10
77039;DHT22;65970;50.476;4.840;2023-04-24T21:36:47;10.60;93.20
77039;DHT22;65970;50.476;4.840;2023-04-24T21:41:47;10.60;93.80
77039;DHT22;65970;50.476;4.840;2023-04-24T21:46:48;10.60;91.20
77039;DHT22;65970;50.476;4.840;2023-04-24T21:51:48;10.60;92.50
77039;DHT22;65970;50.476;4.840;2023-04-24T21:56:49;10.50;94.70
77039;DHT22;65970;50.476;4.840;2023-04-24T22:01:49;10.50;93.20
77039;DHT22;65970;50.476;4.840;2023-04-24T22:06:50;10.50;94.20
77039;DHT22;65970;50.476;4.840;2023-04-24T22:11:50;10.50;96.90
77039;DHT22;65970;50.476;4.840;2023-04-24T22:16:51;10.50;95.60
77039;DHT22;65970;50.476;4.840;2023-04-24T22:21:51;10.50;93.20
77039;DHT22;65970;50.476;4.840;2023-04-24T22:26:51;10.40;89.30
77039;DHT22;65970;50.476;4.840;2023-04-24T22:31:52;10.30;89.50
77039;DHT22;65970;50.476;4.840;2023-04-24T22:36:52;10.30;87.10
77039;DHT22;65970;50.476;4.840;2023-04-24T22:41:53;10.40;84.20
77039;DHT22;65970;50.476;4.840;2023-04-24T22:46:53;10.40;83.80
77039;DHT22;65970;50.476;4.840;2023-04-24T22:51:54;10.30;81.20
77039;DHT22;65970;50.476;4.840;2023-04-24T22:56:54;10.30;80.00
77039;DHT22;65970;50.476;4.840;2023-04-24T23:01:55;10.20;80.10
77039;DHT22;65970;50.476;4.840;2023-04-24T23:06:55;10.20;81.20
77039;DHT22;65970;50.476;4.840;2023-04-24T23:11:55;10.20;83.30
77039;DHT22;65970;50.476;4.840;2023-04-24T23:16:56;10.20;80.80
77039;DHT22;65970;50.476;4.840;2023-04-24T23:21:56;10.20;72.60
77039;DHT22;65970;50.476;4.840;2023-04-24T23:26:57;10.10;74.50
77039;DHT22;65970;50.476;4.840;2023-04-24T23:31:57;10.10;75.60
77039;DHT22;65970;50.476;4.840;2023-04-24T23:36:58;10.00;72.40
77039;DHT22;65970;50.476;4.840;2023-04-24T23:41:58;10.00;76.50
77039;DHT22;65970;50.476;4.840;2023-04-24T23:46:59;10.00;75.30
77039;DHT22;65970;50.476;4.840;2023-04-24T23:51:59;10.00;78.30
77039;DHT22;65970;50.476;4.840;2023-04-24T23:56:59;10.00;74.70
